Del Rio International Airport
KDRT : now visible

Airfield :











YOU CAN JOIN US ON...

 
LOGIN :

Register | Disclaimer

   EN    FR    IT 

 









Legend :    VFR   Marginal VFR   IFR   Intensive IFR   Very Intensive IFR
Visi :
Ceiling :
>= 8 km
>= 3000ft
5 to 8 km
1000 to 3000 ft
1500m to 5 km
500 to 1000 ft
800 to 1500m
200 to 500 ft
< 800m
< 200 ft
Symbols :   Thunderstorms  Fog  Heavy snow  Heavy precipitations  Wind > 20 kt






- Airport Elevation : 1002 ft


KDRT - Del Rio International

CURRENT METAR :
  • 060253Z AUTO 12008KT 10SM OVC021 19/15 A2996 RMK AO2 SLP136 T01940150 51008

EXPIRED METARs :
  • 060153Z AUTO 12009KT 10SM OVC022 19/15 A2996 RMK AO2 SLP135 T01940150 $
  • 060053Z AUTO 13006KT 10SM OVC026 20/15 A2996 RMK AO2 SLP134 T02000150 $

TAF KDRT
Valid from the 06 at 00:00 until the 07 at 00:00 UTC


052328Z 0600/0624 12010KT P6SM OVC018
FM060600 13007KT P6SM OVC008
FM060800 13008KT 2SM BR OVC004
FM061600 14009KT P6SM OVC009
FM062300 12010KT P6SM OVC040



MET'MAP, your aeronautical weather chart ! - Copyright ORBIFLY December 2007 - Disclaimer

ORBIFLY MET'MAP TEAM :

Programming & Development : Alexandra Zaïnal
Concept & original design : Baudouin d'Aumeries
Assistance for programming : Marc-Olivier Méhu
Technical & hardware support : Manuel Goepfert

Contact : metmap@orbifly.com




SOURCES & CREDITS :

   NOAA       Earth
Advisory